createdAt,value
2023-04-04T00:00:25.631Z,98553.78
2023-04-04T00:02:53.288Z,98551.78
2023-04-04T00:05:22.143Z,98549.59
2023-04-04T00:07:49.845Z,98542.56
2023-04-04T00:10:17.709Z,98547.06
2023-04-04T00:12:45.238Z,98540.25
2023-04-04T00:15:13.249Z,98542.56
2023-04-04T00:17:40.767Z,98536.16
2023-04-04T00:20:09.275Z,98540.78
2023-04-04T00:22:38.108Z,98536.25
2023-04-04T00:25:06.275Z,98531.00
2023-04-04T00:27:33.748Z,98531.03
2023-04-04T00:30:01.303Z,98526.34
2023-04-04T00:32:29.403Z,98533.84
2023-04-04T00:34:57.321Z,98528.59
2023-04-04T00:37:24.959Z,98532.84
2023-04-04T00:39:53.786Z,98522.81
2023-04-04T00:42:21.329Z,98524.66
2023-04-04T00:44:48.902Z,98516.19
2023-04-04T00:47:16.868Z,98519.03
2023-04-04T00:49:46.075Z,98515.91
2023-04-04T00:52:13.737Z,98513.50
2023-04-04T00:54:41.307Z,98508.06
2023-04-04T00:57:10.390Z,98508.72
2023-04-04T00:59:37.936Z,98509.63
2023-04-04T01:02:05.516Z,98502.88
2023-04-04T01:04:33.055Z,98500.84
2023-04-04T01:07:01.725Z,98495.09
2023-04-04T01:09:29.720Z,98500.28
2023-04-04T01:11:58.141Z,98507.53
2023-04-04T01:14:28.748Z,98504.59
2023-04-04T01:16:56.832Z,98503.97
2023-04-04T01:19:32.267Z,98509.88
2023-04-04T01:22:03.138Z,98507.81
2023-04-04T01:24:34.592Z,98494.69
2023-04-04T01:27:06.529Z,98504.16
2023-04-04T01:29:39.525Z,98508.88
2023-04-04T01:32:11.116Z,98505.72
2023-04-04T01:34:44.289Z,98497.59
2023-04-04T01:37:16.220Z,98495.28
2023-04-04T01:39:50.056Z,98495.13
2023-04-04T01:42:20.021Z,98498.38
2023-04-04T01:44:48.835Z,98490.72
2023-04-04T01:47:16.981Z,98486.69
2023-04-04T01:49:44.588Z,98481.31
2023-04-04T01:52:13.268Z,98476.22
2023-04-04T01:54:40.868Z,98483.66
2023-04-04T01:57:08.654Z,98478.09
2023-04-04T01:59:37.634Z,98469.94
2023-04-04T02:02:05.143Z,98462.72
2023-04-04T02:04:32.737Z,98469.16
2023-04-04T02:07:00.293Z,98473.63
2023-04-04T02:09:27.844Z,98470.28
2023-04-04T02:11:56.048Z,98476.66
2023-04-04T02:14:23.554Z,98474.97
2023-04-04T02:16:52.597Z,98476.47
2023-04-04T02:19:20.113Z,98467.97
2023-04-04T02:21:47.750Z,98461.66
2023-04-04T02:24:15.514Z,98464.16
2023-04-04T02:26:43.132Z,98458.41
2023-04-04T02:29:10.617Z,98461.63
2023-04-04T02:31:38.308Z,98454.16
2023-04-04T02:34:07.355Z,98453.09
2023-04-04T02:36:35.543Z,98452.41
2023-04-04T02:39:04.707Z,98458.00
2023-04-04T02:41:32.384Z,98454.84
2023-04-04T02:44:00.158Z,98449.19
2023-04-04T02:46:27.727Z,98451.09
2023-04-04T02:49:01.907Z,98455.28
2023-04-04T02:51:31.307Z,98450.84
2023-04-04T02:53:59.582Z,98453.78
2023-04-04T02:56:33.464Z,98448.44
2023-04-04T02:59:00.992Z,98449.69
2023-04-04T03:01:28.593Z,98451.38
2023-04-04T03:03:56.185Z,98446.56
2023-04-04T03:06:23.938Z,98441.22
2023-04-04T03:08:52.798Z,98437.13
2023-04-04T03:11:21.455Z,98441.53
2023-04-04T03:13:51.673Z,98444.03
2023-04-04T03:16:22.362Z,98437.72
2023-04-04T03:18:52.368Z,98434.00
2023-04-04T03:21:22.149Z,98434.78
2023-04-04T03:23:49.708Z,98435.31
2023-04-04T03:26:19.251Z,98422.72
2023-04-04T03:28:47.933Z,98425.81
2023-04-04T03:31:16.603Z,98425.69
2023-04-04T03:33:45.155Z,98428.84
2023-04-04T03:36:13.108Z,98424.13
2023-04-04T03:38:41.280Z,98423.84
2023-04-04T03:41:10.639Z,98426.66
2023-04-04T03:43:39.537Z,98419.09
2023-04-04T03:46:07.939Z,98415.50
2023-04-04T03:48:35.584Z,98417.13
2023-04-04T03:51:06.277Z,98419.94
2023-04-04T03:53:35.672Z,98407.63
2023-04-04T03:56:03.423Z,98418.97
2023-04-04T03:58:31.124Z,98413.47
2023-04-04T04:01:00.047Z,98407.56
2023-04-04T04:03:30.852Z,98417.81
2023-04-04T04:05:58.493Z,98416.63
2023-04-04T04:08:26.275Z,98414.72
2023-04-04T04:10:54.503Z,98415.78
2023-04-04T04:13:22.910Z,98409.00
2023-04-04T04:15:51.322Z,98411.22
2023-04-04T04:18:23.929Z,98415.88
2023-04-04T04:20:57.869Z,98409.47
2023-04-04T04:23:25.459Z,98418.13
2023-04-04T04:25:53.475Z,98407.97
2023-04-04T04:28:23.826Z,98415.63
2023-04-04T04:31:05.374Z,98411.69
2023-04-04T04:33:34.438Z,98409.19
2023-04-04T04:36:07.298Z,98412.66
2023-04-04T04:38:47.123Z,98414.50
2023-04-04T04:41:16.367Z,98411.88
2023-04-04T04:43:47.958Z,98407.72
2023-04-04T04:46:15.803Z,98412.84
2023-04-04T04:48:44.727Z,98412.84
2023-04-04T04:51:14.878Z,98404.84
2023-04-04T04:53:47.507Z,98411.53
2023-04-04T04:56:15.431Z,98417.38
2023-04-04T04:58:47.545Z,98417.09
2023-04-04T05:01:21.334Z,98419.31
2023-04-04T05:03:52.184Z,98414.47
2023-04-04T05:06:27.204Z,98413.72
2023-04-04T05:08:55.852Z,98422.94
2023-04-04T05:11:35.491Z,98408.94
2023-04-04T05:14:04.506Z,98419.47
2023-04-04T05:16:37.005Z,98427.13
2023-04-04T05:19:06.728Z,98423.06
2023-04-04T05:21:40.732Z,98426.31
2023-04-04T05:24:12.539Z,98420.84
2023-04-04T05:26:40.918Z,98424.91
2023-04-04T05:29:08.429Z,98443.81
2023-04-04T05:31:40.965Z,98440.69
2023-04-04T05:34:17.229Z,98434.59
2023-04-04T05:36:44.852Z,98436.31
2023-04-04T05:39:12.465Z,98438.25
2023-04-04T05:41:48.410Z,98436.00
2023-04-04T05:44:18.540Z,98439.25
2023-04-04T05:46:46.292Z,98437.47
2023-04-04T05:49:13.929Z,98444.66
2023-04-04T05:51:49.296Z,98440.69
2023-04-04T05:54:17.703Z,98445.94
2023-04-04T05:56:45.862Z,98447.03
2023-04-04T05:59:25.319Z,98442.13
2023-04-04T06:02:01.323Z,98440.78
2023-04-04T06:04:29.859Z,98445.31
2023-04-04T06:07:01.169Z,98448.66
2023-04-04T06:09:29.266Z,98448.66
2023-04-04T06:11:56.986Z,98438.38
2023-04-04T06:14:24.681Z,98444.00
2023-04-04T06:16:52.591Z,98446.03
2023-04-04T06:19:21.770Z,98436.66
2023-04-04T06:21:49.613Z,98451.00
2023-04-04T06:24:18.499Z,98444.88
2023-04-04T06:26:46.409Z,98452.38
2023-04-04T06:29:14.132Z,98449.81
2023-04-04T06:31:43.334Z,98446.97
2023-04-04T06:34:22.619Z,98445.19
2023-04-04T06:36:54.761Z,98446.88
2023-04-04T06:39:27.192Z,98448.34
2023-04-04T06:41:58.424Z,98457.59
2023-04-04T06:44:29.068Z,98451.63
2023-04-04T06:46:57.195Z,98453.28
2023-04-04T06:49:25.688Z,98455.78
2023-04-04T06:51:54.103Z,98451.78
2023-04-04T06:54:21.675Z,98444.28
2023-04-04T06:56:50.525Z,98450.16
2023-04-04T06:59:18.210Z,98443.06
2023-04-04T07:01:46.058Z,98448.19
2023-04-04T07:04:13.623Z,98443.75
2023-04-04T07:06:41.092Z,98453.22
2023-04-04T07:09:15.376Z,98452.34
2023-04-04T07:11:43.039Z,98448.91
2023-04-04T07:14:11.863Z,98446.16
2023-04-04T07:16:39.506Z,98449.78
2023-04-04T07:19:07.024Z,98446.81
2023-04-04T07:21:34.778Z,98454.91
2023-04-04T07:24:03.868Z,98450.97
2023-04-04T07:26:31.783Z,98449.56
2023-04-04T07:28:59.367Z,98441.31
2023-04-04T07:31:28.455Z,98448.97
2023-04-04T07:33:56.133Z,98441.41
2023-04-04T07:36:23.695Z,98443.72
2023-04-04T07:38:51.257Z,98450.28
2023-04-04T07:41:18.816Z,98445.72
2023-04-04T07:43:46.473Z,98444.75
2023-04-04T07:46:14.418Z,98447.84
2023-04-04T07:48:43.257Z,98443.78
2023-04-04T07:51:10.771Z,98446.88
2023-04-04T07:53:38.250Z,98447.16
2023-04-04T07:56:07.056Z,98447.72
2023-04-04T07:58:35.005Z,98447.50
2023-04-04T08:01:02.542Z,98448.09
2023-04-04T08:03:30.794Z,98451.03
2023-04-04T08:05:59.772Z,98444.50
2023-04-04T08:08:27.279Z,98444.03
2023-04-04T08:10:54.832Z,98437.41
2023-04-04T08:13:23.325Z,98439.00
2023-04-04T08:15:51.063Z,98444.34
2023-04-04T08:18:18.841Z,98445.34
2023-04-04T08:20:46.917Z,98440.91
2023-04-04T08:23:15.748Z,98442.00
2023-04-04T08:25:44.937Z,98441.22
2023-04-04T08:28:12.540Z,98445.59
2023-04-04T08:30:40.353Z,98443.22
2023-04-04T08:33:09.320Z,98431.59
2023-04-04T08:35:37.361Z,98444.38
2023-04-04T08:38:06.277Z,98437.84
2023-04-04T08:40:35.146Z,98440.44
2023-04-04T08:43:02.880Z,98431.16
2023-04-04T08:45:31.672Z,98431.25
2023-04-04T08:48:00.005Z,98439.38
2023-04-04T08:50:27.855Z,98439.31
2023-04-04T08:52:55.721Z,98441.66
2023-04-04T08:55:23.267Z,98440.34
2023-04-04T08:57:52.097Z,98434.78
2023-04-04T09:00:21.498Z,98434.84
2023-04-04T09:02:53.812Z,98433.13
2023-04-04T09:05:22.383Z,98430.41
2023-04-04T09:07:51.624Z,98423.44
2023-04-04T09:10:19.186Z,98426.19
2023-04-04T09:12:48.434Z,98425.44
2023-04-04T09:15:17.363Z,98423.34
2023-04-04T09:17:45.001Z,98431.31
2023-04-04T09:20:34.755Z,98428.50
2023-04-04T09:23:02.250Z,98422.78
2023-04-04T09:25:29.755Z,98428.50
2023-04-04T09:27:57.994Z,98428.75
2023-04-04T09:30:26.789Z,98423.56
2023-04-04T09:32:54.342Z,98424.47
2023-04-04T09:35:21.917Z,98425.38
2023-04-04T09:37:49.835Z,98426.69
2023-04-04T09:40:17.764Z,98422.25
2023-04-04T09:42:47.134Z,98437.91
2023-04-04T09:45:22.421Z,98427.97
2023-04-04T09:47:58.851Z,98427.97
2023-04-04T09:50:28.814Z,98430.25
2023-04-04T09:52:57.801Z,98430.75
2023-04-04T09:55:32.950Z,98435.78
2023-04-04T09:58:02.582Z,98432.94
2023-04-04T10:00:31.391Z,98434.44
2023-04-04T10:03:03.755Z,98432.56
2023-04-04T10:05:31.310Z,98424.91
2023-04-04T10:07:59.319Z,98426.78
2023-04-04T10:10:28.498Z,98428.81
2023-04-04T10:12:58.749Z,98428.97
2023-04-04T10:15:36.403Z,98425.09
2023-04-04T10:18:05.394Z,98425.13
2023-04-04T10:20:34.102Z,98431.63
2023-04-04T10:23:01.790Z,98432.16
2023-04-04T10:25:30.769Z,98427.31
2023-04-04T10:27:58.336Z,98437.00
2023-04-04T10:30:26.260Z,98426.19
2023-04-04T10:32:58.793Z,98424.19
2023-04-04T10:35:28.421Z,98429.31
2023-04-04T10:37:59.436Z,98423.38
2023-04-04T10:40:29.648Z,98423.16
2023-04-04T10:42:58.369Z,98420.50
2023-04-04T10:45:26.872Z,98412.25
2023-04-04T10:47:54.958Z,98418.81
2023-04-04T10:50:22.638Z,98433.69
2023-04-04T10:52:51.817Z,98423.56
2023-04-04T10:55:19.775Z,98415.75
2023-04-04T10:57:51.749Z,98417.16
2023-04-04T11:00:23.326Z,98420.78
2023-04-04T11:02:55.476Z,98413.97
2023-04-04T11:05:25.255Z,98411.41
2023-04-04T11:08:08.127Z,98411.03
2023-04-04T11:10:37.030Z,98407.69
2023-04-04T11:13:13.270Z,98398.09
2023-04-04T11:15:54.385Z,98406.72
2023-04-04T11:18:33.246Z,98400.59
2023-04-04T11:21:02.766Z,98403.53
2023-04-04T11:23:40.192Z,98399.91
2023-04-04T11:26:08.427Z,98398.06
2023-04-04T11:28:47.062Z,98397.38
2023-04-04T11:31:24.699Z,98401.28
2023-04-04T11:33:56.539Z,98387.22
2023-04-04T11:36:53.085Z,98392.66
2023-04-04T11:39:28.400Z,98378.72
2023-04-04T11:41:58.902Z,98392.53
2023-04-04T11:44:29.193Z,98386.41
2023-04-04T11:46:58.165Z,98385.56
2023-04-04T11:49:30.226Z,98378.47
2023-04-04T11:51:58.225Z,98377.63
2023-04-04T11:54:27.901Z,98377.66
2023-04-04T11:56:55.452Z,98382.38
2023-04-04T11:59:23.253Z,98375.13
2023-04-04T12:01:51.541Z,98374.03
2023-04-04T12:04:20.183Z,98372.72
2023-04-04T12:06:49.599Z,98365.66
2023-04-04T12:09:18.545Z,98374.88
2023-04-04T12:11:47.702Z,98367.19
2023-04-04T12:14:19.054Z,98364.66
2023-04-04T12:16:49.174Z,98363.50
2023-04-04T12:19:18.208Z,98356.94
2023-04-04T12:21:46.871Z,98355.81
2023-04-04T12:24:15.115Z,98351.94
2023-04-04T12:26:43.987Z,98345.25
2023-04-04T12:29:14.246Z,98348.63
2023-04-04T12:31:43.036Z,98344.16
2023-04-04T12:34:17.301Z,98339.25
2023-04-04T12:36:44.831Z,98342.22
2023-04-04T12:39:12.441Z,98342.63
2023-04-04T12:41:49.303Z,98340.25
2023-04-04T12:44:29.213Z,98353.84
2023-04-04T12:46:58.941Z,98340.75
2023-04-04T12:49:29.879Z,98336.03
2023-04-04T12:52:00.516Z,98338.03
2023-04-04T12:54:30.555Z,98352.38
2023-04-04T12:56:58.418Z,98354.91
2023-04-04T12:59:29.792Z,98349.63
2023-04-04T13:01:57.430Z,98346.66
2023-04-04T13:04:25.269Z,98337.09
2023-04-04T13:06:53.206Z,98338.75
2023-04-04T13:09:22.647Z,98337.22
2023-04-04T13:12:01.778Z,98332.63
2023-04-04T13:14:58.543Z,98334.44
2023-04-04T13:17:26.094Z,98330.88
2023-04-04T13:19:53.996Z,98336.25
2023-04-04T13:22:21.485Z,98330.44
2023-04-04T13:24:48.983Z,98327.06
2023-04-04T13:27:16.496Z,98329.09
2023-04-04T13:29:44.209Z,98330.38
2023-04-04T13:32:13.049Z,98327.13
2023-04-04T13:34:40.554Z,98326.75
2023-04-04T13:37:08.111Z,98328.59
2023-04-04T13:39:35.590Z,98324.13
2023-04-04T13:42:03.478Z,98328.31
2023-04-04T13:44:31.117Z,98315.25
2023-04-04T13:46:58.903Z,98319.44
2023-04-04T13:49:27.755Z,98315.97
2023-04-04T13:51:55.421Z,98313.91
2023-04-04T13:54:22.905Z,98305.84
2023-04-04T13:56:50.540Z,98297.94
2023-04-04T13:59:18.044Z,98284.50
2023-04-04T14:01:46.021Z,98288.38
2023-04-04T14:04:23.268Z,98282.25
2023-04-04T14:06:52.844Z,98277.63
2023-04-04T14:09:20.326Z,98287.44
2023-04-04T14:11:48.124Z,98284.53
2023-04-04T14:14:15.778Z,98286.72
2023-04-04T14:16:43.276Z,98281.75
2023-04-04T14:19:10.768Z,98288.59
2023-04-04T14:21:38.218Z,98283.34
2023-04-04T14:24:07.985Z,98295.25
2023-04-04T14:26:37.542Z,98281.28
2023-04-04T14:29:05.034Z,98278.63
2023-04-04T14:31:34.717Z,98280.00
2023-04-04T14:34:02.655Z,98273.94
2023-04-04T14:36:30.133Z,98266.03
2023-04-04T14:38:58.157Z,98270.22
2023-04-04T14:41:27.327Z,98276.91
2023-04-04T14:43:54.803Z,98276.19
2023-04-04T14:46:22.383Z,98282.22
2023-04-04T14:48:49.867Z,98265.53
2023-04-04T14:51:19.630Z,98272.22
2023-04-04T14:53:47.346Z,98279.47
2023-04-04T14:56:14.864Z,98267.94
2023-04-04T14:58:44.002Z,98273.91
2023-04-04T15:01:12.135Z,98271.56
2023-04-04T15:03:39.690Z,98272.00
2023-04-04T15:06:07.594Z,98261.41
2023-04-04T15:08:35.229Z,98270.34
2023-04-04T15:11:03.024Z,98266.06
2023-04-04T15:13:30.511Z,98267.44
2023-04-04T15:16:00.790Z,98266.34
2023-04-04T15:18:28.392Z,98264.63
2023-04-04T15:20:58.479Z,98259.41
2023-04-04T15:23:26.143Z,98258.06
2023-04-04T15:25:53.600Z,98249.84
2023-04-04T15:28:21.164Z,98261.16
2023-04-04T15:30:48.780Z,98260.59
2023-04-04T15:33:17.633Z,98249.69
2023-04-04T15:35:45.154Z,98259.56
2023-04-04T15:38:12.663Z,98248.97
2023-04-04T15:40:40.353Z,98244.72
2023-04-04T15:43:08.000Z,98251.00
2023-04-04T15:45:35.777Z,98246.47
2023-04-04T15:48:03.298Z,98246.50
2023-04-04T15:50:32.395Z,98236.66
2023-04-04T15:52:59.905Z,98240.06
2023-04-04T15:55:27.631Z,98240.63
2023-04-04T15:57:55.124Z,98242.75
2023-04-04T16:00:22.957Z,98246.66
2023-04-04T16:02:50.637Z,98229.84
2023-04-04T16:05:29.271Z,98237.81
2023-04-04T16:07:58.225Z,98236.16
2023-04-04T16:10:26.133Z,98249.53
2023-04-04T16:12:53.646Z,98234.53
2023-04-04T16:15:21.824Z,98240.53
2023-04-04T16:17:49.483Z,98251.28
2023-04-04T16:20:17.397Z,98236.25
2023-04-04T16:22:44.968Z,98234.28
2023-04-04T16:25:13.853Z,98239.47
2023-04-04T16:27:41.373Z,98236.53
2023-04-04T16:30:10.054Z,98229.00
2023-04-04T16:32:38.244Z,98226.75
2023-04-04T16:35:06.706Z,98232.88
2023-04-04T16:37:34.185Z,98228.13
2023-04-04T16:40:02.159Z,98223.41
2023-04-04T16:42:31.060Z,98220.38
2023-04-04T16:44:58.799Z,98220.94
2023-04-04T16:47:28.257Z,98229.59
2023-04-04T16:49:56.192Z,98223.88
2023-04-04T16:52:23.821Z,98226.66
2023-04-04T16:54:51.320Z,98219.31
2023-04-04T16:57:19.069Z,98213.34
2023-04-04T16:59:47.900Z,98216.44
2023-04-04T17:02:15.650Z,98222.38
2023-04-04T17:04:43.631Z,98226.44
2023-04-04T17:07:11.535Z,98215.16
2023-04-04T17:09:39.203Z,98219.63
2023-04-04T17:12:06.852Z,98221.69
2023-04-04T17:14:34.394Z,98218.66
2023-04-04T17:17:04.919Z,98220.72
2023-04-04T17:19:34.766Z,98221.41
2023-04-04T17:22:03.131Z,98225.47
2023-04-04T17:24:30.940Z,98219.22
2023-04-04T17:26:58.901Z,98221.00
2023-04-04T17:29:27.509Z,98222.53
2023-04-04T17:31:56.141Z,98222.00
2023-04-04T17:34:25.280Z,98220.59
2023-04-04T17:36:53.373Z,98211.41
2023-04-04T17:39:21.584Z,98213.94
2023-04-04T17:41:49.262Z,98210.28
2023-04-04T17:44:17.325Z,98222.25
2023-04-04T17:46:45.032Z,98213.75
2023-04-04T17:49:12.656Z,98210.28
2023-04-04T17:51:41.549Z,98217.94
2023-04-04T17:54:09.053Z,98205.44
2023-04-04T17:56:37.275Z,98212.38
2023-04-04T17:59:04.878Z,98215.03
2023-04-04T18:01:32.694Z,98215.56
2023-04-04T18:04:00.318Z,98206.94
2023-04-04T18:06:28.090Z,98210.56
2023-04-04T18:08:56.921Z,98221.66
2023-04-04T18:11:24.769Z,98211.09
2023-04-04T18:13:52.316Z,98214.97
2023-04-04T18:16:19.920Z,98212.03
2023-04-04T18:18:47.644Z,98219.53
2023-04-04T18:21:15.399Z,98218.38
2023-04-04T18:23:42.950Z,98216.72
2023-04-04T18:26:13.112Z,98216.19
2023-04-04T18:28:41.025Z,98217.25
2023-04-04T18:31:08.824Z,98217.81
2023-04-04T18:33:36.470Z,98213.63
2023-04-04T18:36:04.813Z,98212.22
2023-04-04T18:38:32.318Z,98213.31
2023-04-04T18:40:59.930Z,98215.28
2023-04-04T18:43:28.944Z,98220.25
2023-04-04T18:45:58.030Z,98219.09
2023-04-04T18:48:25.869Z,98218.25
2023-04-04T18:50:53.378Z,98212.78
2023-04-04T18:53:21.356Z,98218.34
2023-04-04T18:55:49.182Z,98216.53
2023-04-04T18:58:16.710Z,98208.75
2023-04-04T19:00:46.689Z,98218.22
2023-04-04T19:03:15.776Z,98205.81
2023-04-04T19:05:47.517Z,98219.56
2023-04-04T19:08:16.559Z,98215.13
2023-04-04T19:10:47.205Z,98216.25
2023-04-04T19:13:15.796Z,98215.13
2023-04-04T19:15:45.127Z,98208.75
2023-04-04T19:18:12.783Z,98217.22
2023-04-04T19:20:42.183Z,98217.78
2023-04-04T19:23:10.276Z,98218.25
2023-04-04T19:25:37.828Z,98229.16
2023-04-04T19:28:05.695Z,98221.50
2023-04-04T19:30:41.846Z,98220.00
2023-04-04T19:33:11.896Z,98229.50
2023-04-04T19:35:49.340Z,98230.88
2023-04-04T19:38:22.904Z,98229.38
2023-04-04T19:40:52.710Z,98226.91
2023-04-04T19:43:23.050Z,98233.75
2023-04-04T19:45:53.538Z,98231.91
2023-04-04T19:48:44.017Z,98228.63
2023-04-04T19:51:13.666Z,98230.84
2023-04-04T19:53:41.205Z,98234.06
2023-04-04T19:56:09.865Z,98223.50
2023-04-04T19:58:37.738Z,98224.91
2023-04-04T20:01:07.603Z,98236.13
2023-04-04T20:03:36.975Z,98232.03
2023-04-04T20:06:11.112Z,98238.66
2023-04-04T20:08:44.208Z,98241.72
2023-04-04T20:11:13.700Z,98239.81
2023-04-04T20:13:41.755Z,98235.31
2023-04-04T20:16:13.649Z,98242.03
2023-04-04T20:18:43.495Z,98240.50
2023-04-04T20:21:14.971Z,98236.59
2023-04-04T20:23:48.020Z,98232.19
2023-04-04T20:26:40.609Z,98233.88
2023-04-04T20:29:09.526Z,98237.56
2023-04-04T20:31:42.635Z,98240.56
2023-04-04T20:34:27.715Z,98230.75
2023-04-04T20:36:56.654Z,98242.94
2023-04-04T20:39:46.951Z,98236.19
2023-04-04T20:42:21.185Z,98233.53
2023-04-04T20:44:48.780Z,98237.56
2023-04-04T20:47:31.552Z,98231.38
2023-04-04T20:49:59.300Z,98237.13
2023-04-04T20:52:28.280Z,98240.09
2023-04-04T20:54:55.798Z,98249.31
2023-04-04T20:57:25.691Z,98244.16
2023-04-04T20:59:53.278Z,98249.19
2023-04-04T21:02:21.036Z,98249.53
2023-04-04T21:04:51.278Z,98245.72
2023-04-04T21:07:39.252Z,98242.50
2023-04-04T21:10:24.649Z,98246.34
2023-04-04T21:12:52.504Z,98250.97
2023-04-04T21:15:24.438Z,98251.16
2023-04-04T21:17:52.533Z,98246.72
2023-04-04T21:20:53.759Z,98240.06
2023-04-04T21:23:31.170Z,98251.66
2023-04-04T21:26:00.149Z,98252.44
2023-04-04T21:28:32.040Z,98242.16
2023-04-04T21:31:00.116Z,98242.19
2023-04-04T21:33:27.886Z,98240.50
2023-04-04T21:35:57.012Z,98242.75
2023-04-04T21:38:30.618Z,98237.03
2023-04-04T21:40:59.050Z,98229.56
2023-04-04T21:43:26.925Z,98236.22
2023-04-04T21:45:55.214Z,98238.97
2023-04-04T21:48:22.888Z,98243.13
2023-04-04T21:50:50.519Z,98237.81
2023-04-04T21:53:18.317Z,98227.63
2023-04-04T21:55:47.243Z,98237.63
2023-04-04T21:58:14.727Z,98233.69
2023-04-04T22:00:42.835Z,98236.69
2023-04-04T22:03:10.524Z,98232.72
2023-04-04T22:05:39.410Z,98232.72
2023-04-04T22:08:07.213Z,98230.09
2023-04-04T22:10:34.758Z,98228.75
2023-04-04T22:13:03.547Z,98224.19
2023-04-04T22:15:31.182Z,98226.16
2023-04-04T22:18:03.683Z,98223.50
2023-04-04T22:20:32.113Z,98221.28
2023-04-04T22:22:59.709Z,98223.84
2023-04-04T22:25:27.409Z,98221.59
2023-04-04T22:27:54.964Z,98221.16
2023-04-04T22:30:25.862Z,98228.19
2023-04-04T22:32:59.433Z,98232.22
2023-04-04T22:35:27.987Z,98224.88
2023-04-04T22:37:57.485Z,98219.31
2023-04-04T22:40:25.507Z,98227.81
2023-04-04T22:42:53.024Z,98226.13
2023-04-04T22:45:20.868Z,98226.97
2023-04-04T22:47:50.026Z,98224.88
2023-04-04T22:50:19.066Z,98227.88
2023-04-04T22:52:46.917Z,98219.16
2023-04-04T22:55:16.774Z,98227.69
2023-04-04T22:57:44.447Z,98220.47
2023-04-04T23:00:14.493Z,98213.56
2023-04-04T23:02:43.443Z,98216.63
2023-04-04T23:05:14.234Z,98218.00
2023-04-04T23:07:42.364Z,98211.91
2023-04-04T23:10:11.358Z,98203.75
2023-04-04T23:12:39.505Z,98202.31
2023-04-04T23:15:08.717Z,98208.22
2023-04-04T23:17:38.717Z,98199.44
2023-04-04T23:20:09.357Z,98202.06
2023-04-04T23:22:38.712Z,98188.38
2023-04-04T23:25:07.882Z,98200.47
2023-04-04T23:27:35.721Z,98198.03
2023-04-04T23:30:04.845Z,98192.53
2023-04-04T23:32:32.582Z,98192.09
2023-04-04T23:35:00.258Z,98192.88
2023-04-04T23:37:27.760Z,98191.91
2023-04-04T23:39:56.715Z,98188.78
2023-04-04T23:42:24.375Z,98190.91
2023-04-04T23:44:53.356Z,98185.00
2023-04-04T23:47:21.299Z,98185.91
2023-04-04T23:49:48.790Z,98176.66
2023-04-04T23:52:16.302Z,98182.38
2023-04-04T23:54:43.796Z,98179.41
2023-04-04T23:57:12.746Z,98171.44
2023-04-04T23:59:40.247Z,98169.84
